createdAt,value
2018-10-09T00:02:03.408Z,12.70
2018-10-09T00:04:32.237Z,13.40
2018-10-09T00:07:00.922Z,13.53
2018-10-09T00:09:29.668Z,13.97
2018-10-09T00:11:58.358Z,13.73
2018-10-09T00:14:27.029Z,13.93
2018-10-09T00:16:55.625Z,13.57
2018-10-09T00:19:24.287Z,13.90
2018-10-09T00:21:52.999Z,13.27
2018-10-09T00:24:21.712Z,13.60
2018-10-09T00:26:50.685Z,13.50
2018-10-09T00:29:19.337Z,13.27
2018-10-09T00:31:47.978Z,13.50
2018-10-09T00:34:16.579Z,14.17
2018-10-09T00:36:45.179Z,13.37
2018-10-09T00:39:13.917Z,13.63
2018-10-09T00:41:42.601Z,13.50
2018-10-09T00:44:11.229Z,13.73
2018-10-09T00:46:40.018Z,14.37
2018-10-09T00:49:08.619Z,13.90
2018-10-09T00:51:37.289Z,14.03
2018-10-09T00:54:05.919Z,13.33
2018-10-09T00:56:34.633Z,14.07
2018-10-09T00:59:03.235Z,13.80
2018-10-09T01:01:31.879Z,14.13
2018-10-09T01:04:00.576Z,13.60
2018-10-09T01:06:29.208Z,14.33
2018-10-09T01:08:57.869Z,13.27
2018-10-09T01:11:26.500Z,13.67
2018-10-09T01:13:55.199Z,14.10
2018-10-09T01:16:23.834Z,13.87
2018-10-09T01:18:52.512Z,13.23
2018-10-09T01:21:21.124Z,14.17
2018-10-09T01:23:49.768Z,13.10
2018-10-09T01:26:18.456Z,13.73
2018-10-09T01:28:47.111Z,13.80
2018-10-09T01:31:15.773Z,13.97
2018-10-09T01:33:44.383Z,14.17
2018-10-09T01:36:13.147Z,13.80
2018-10-09T01:38:41.804Z,13.63
2018-10-09T01:41:10.460Z,14.60
2018-10-09T01:43:39.186Z,13.87
2018-10-09T01:46:07.783Z,14.40
2018-10-09T01:48:36.445Z,14.00
2018-10-09T01:51:05.078Z,13.70
2018-10-09T01:53:33.692Z,14.87
2018-10-09T01:56:02.432Z,13.97
2018-10-09T01:58:31.194Z,14.87
2018-10-09T02:00:59.852Z,14.57
2018-10-09T02:03:28.630Z,15.30
2018-10-09T02:05:57.235Z,14.13
2018-10-09T02:08:25.842Z,14.53
2018-10-09T02:10:54.508Z,14.70
2018-10-09T02:13:23.100Z,14.67
2018-10-09T02:15:52.070Z,14.40
2018-10-09T02:18:20.680Z,15.33
2018-10-09T02:20:49.411Z,14.30
2018-10-09T02:23:18.164Z,14.23
2018-10-09T02:25:46.806Z,14.27
2018-10-09T02:28:15.431Z,13.83
2018-10-09T02:30:44.085Z,14.33
2018-10-09T02:33:12.797Z,14.00
2018-10-09T02:35:41.471Z,15.93
2018-10-09T02:38:10.045Z,15.37
2018-10-09T02:40:38.661Z,15.40
2018-10-09T02:43:08.091Z,14.87
2018-10-09T02:45:36.952Z,14.43
2018-10-09T02:48:05.555Z,15.47
2018-10-09T02:50:34.175Z,15.07
2018-10-09T02:53:02.804Z,14.60
2018-10-09T02:55:31.567Z,14.83
2018-10-09T02:58:00.158Z,15.23
2018-10-09T03:00:28.783Z,14.63
2018-10-09T03:02:57.401Z,15.23
2018-10-09T03:05:26.028Z,15.43
2018-10-09T03:07:54.654Z,15.53
2018-10-09T03:10:23.288Z,14.13
2018-10-09T03:12:51.931Z,15.00
2018-10-09T03:15:20.591Z,14.03
2018-10-09T03:17:49.223Z,15.87
2018-10-09T03:20:17.894Z,15.07
2018-10-09T03:22:46.690Z,15.13
2018-10-09T03:25:15.389Z,16.27
2018-10-09T03:27:44.035Z,16.00
2018-10-09T03:30:13.317Z,15.30
2018-10-09T03:32:42.016Z,15.60
2018-10-09T03:35:10.688Z,15.87
2018-10-09T03:37:39.295Z,15.40
2018-10-09T03:40:07.955Z,15.13
2018-10-09T03:42:36.536Z,15.47
2018-10-09T03:45:05.277Z,15.63
2018-10-09T03:47:34.217Z,15.80
2018-10-09T03:50:02.856Z,15.40
2018-10-09T03:52:31.649Z,15.40
2018-10-09T03:55:00.349Z,17.40
2018-10-09T03:57:28.995Z,16.13
2018-10-09T03:59:57.691Z,16.77
2018-10-09T04:02:26.679Z,16.13
2018-10-09T04:05:00.261Z,15.77
2018-10-09T04:07:29.065Z,17.57
2018-10-09T04:09:57.739Z,17.27
2018-10-09T04:12:26.401Z,16.93
2018-10-09T04:14:55.056Z,18.20
2018-10-09T04:17:24.174Z,16.97
2018-10-09T04:19:52.965Z,17.43
2018-10-09T04:22:22.850Z,17.47
2018-10-09T04:24:51.692Z,17.23
2018-10-09T04:27:20.555Z,17.00
2018-10-09T04:29:49.303Z,16.53
2018-10-09T04:32:17.998Z,16.10
2018-10-09T04:34:46.818Z,17.03
2018-10-09T04:37:15.522Z,17.30
2018-10-09T04:39:44.217Z,17.20
2018-10-09T04:42:12.882Z,18.13
2018-10-09T04:44:41.539Z,17.90
2018-10-09T04:47:10.166Z,18.00
2018-10-09T04:49:38.784Z,17.83
2018-10-09T04:52:07.499Z,17.93
2018-10-09T04:54:36.166Z,18.70
2018-10-09T04:57:04.797Z,17.33
2018-10-09T04:59:33.621Z,17.80
2018-10-09T05:02:02.645Z,19.03
2018-10-09T05:04:31.253Z,21.10
2018-10-09T05:07:01.137Z,20.13
2018-10-09T05:09:29.867Z,20.03
2018-10-09T05:11:58.504Z,21.67
2018-10-09T05:14:28.331Z,22.90
2018-10-09T05:16:57.143Z,23.07
2018-10-09T05:19:25.831Z,24.03
2018-10-09T05:21:54.487Z,25.83
2018-10-09T05:24:23.100Z,25.33
2018-10-09T05:26:54.084Z,27.67
2018-10-09T05:29:24.868Z,26.80
2018-10-09T05:31:53.517Z,26.70
2018-10-09T05:34:22.162Z,27.20
2018-10-09T05:36:50.858Z,25.53
2018-10-09T05:39:19.521Z,26.87
2018-10-09T05:41:48.186Z,27.43
2018-10-09T05:44:16.993Z,28.23
2018-10-09T05:46:45.650Z,36.20
2018-10-09T05:49:14.374Z,51.97
2018-10-09T05:51:43.028Z,54.53
2018-10-09T05:54:11.648Z,41.90
2018-10-09T05:56:40.423Z,40.83
2018-10-09T05:59:09.127Z,36.87
2018-10-09T06:01:38.028Z,35.43
2018-10-09T06:04:06.752Z,35.30
2018-10-09T06:06:35.393Z,33.63
2018-10-09T06:09:05.731Z,34.57
2018-10-09T06:11:34.414Z,36.30
2018-10-09T06:14:03.154Z,38.53
2018-10-09T06:16:31.867Z,36.87
2018-10-09T06:19:00.866Z,38.20
2018-10-09T06:21:29.837Z,38.60
2018-10-09T06:23:58.460Z,37.67
2018-10-09T06:26:27.139Z,37.97
2018-10-09T06:28:55.794Z,38.13
2018-10-09T06:31:24.602Z,38.57
2018-10-09T06:33:53.250Z,39.27
2018-10-09T06:36:21.870Z,36.93
2018-10-09T06:38:50.579Z,36.63
2018-10-09T06:41:19.184Z,37.10
2018-10-09T06:43:47.897Z,35.70
2018-10-09T06:46:17.637Z,33.37
2018-10-09T06:48:47.696Z,35.13
2018-10-09T06:51:16.428Z,33.37
2018-10-09T06:53:45.359Z,33.70
2018-10-09T06:56:14.036Z,33.90
2018-10-09T06:58:42.788Z,33.47
2018-10-09T07:01:11.698Z,31.70
2018-10-09T07:03:40.511Z,32.93
2018-10-09T07:06:09.245Z,33.00
2018-10-09T07:08:37.941Z,33.30
2018-10-09T07:11:06.674Z,32.43
2018-10-09T07:13:35.352Z,32.17
2018-10-09T07:16:04.086Z,32.27
2018-10-09T07:18:32.800Z,31.90
2018-10-09T07:21:01.672Z,32.20
2018-10-09T07:23:30.505Z,31.13
2018-10-09T07:25:59.250Z,31.47
2018-10-09T07:28:28.125Z,32.37
2018-10-09T07:30:56.811Z,34.47
2018-10-09T07:33:25.499Z,30.97
2018-10-09T07:35:54.200Z,31.53
2018-10-09T07:38:22.939Z,31.67
2018-10-09T07:40:51.608Z,32.13
2018-10-09T07:43:20.250Z,30.90
2018-10-09T07:45:49.039Z,28.83
2018-10-09T07:48:17.652Z,29.13
2018-10-09T07:50:46.327Z,29.87
2018-10-09T07:53:14.961Z,28.10
2018-10-09T07:55:43.592Z,27.80
2018-10-09T07:58:12.226Z,29.07
2018-10-09T08:00:40.943Z,28.40
2018-10-09T08:03:09.631Z,28.80
2018-10-09T08:05:39.221Z,27.83
2018-10-09T08:08:07.856Z,28.77
2018-10-09T08:10:36.593Z,29.33
2018-10-09T08:13:05.172Z,27.53
2018-10-09T08:15:33.772Z,27.20
2018-10-09T08:18:02.565Z,27.17
2018-10-09T08:20:31.342Z,27.33
2018-10-09T08:23:00.094Z,28.13
2018-10-09T08:25:28.698Z,26.83
2018-10-09T08:27:57.380Z,25.87
2018-10-09T08:30:26.086Z,25.93
2018-10-09T08:32:54.706Z,26.93
2018-10-09T08:35:23.344Z,26.30
2018-10-09T08:37:52.088Z,26.52
2018-10-09T08:40:20.789Z,26.97
2018-10-09T08:42:49.401Z,27.45
2018-10-09T08:45:18.100Z,24.92
2018-10-09T08:47:46.792Z,24.77
2018-10-09T08:50:15.464Z,24.50
2018-10-09T08:52:44.871Z,25.95
2018-10-09T08:55:13.643Z,24.40
2018-10-09T08:57:42.279Z,25.72
2018-10-09T09:00:12.869Z,25.12
2018-10-09T09:02:42.230Z,24.90
2018-10-09T09:05:11.699Z,25.72
2018-10-09T09:07:40.532Z,26.62
2018-10-09T09:10:09.179Z,24.52
2018-10-09T09:12:37.826Z,25.80
2018-10-09T09:15:06.919Z,25.55
2018-10-09T09:17:35.649Z,24.72
2018-10-09T09:20:04.266Z,24.13
2018-10-09T09:22:32.898Z,25.83
2018-10-09T09:25:01.549Z,24.77
2018-10-09T09:27:30.300Z,24.07
2018-10-09T09:30:01.710Z,24.65
2018-10-09T09:32:32.455Z,23.35
2018-10-09T09:35:01.069Z,21.52
2018-10-09T09:37:29.728Z,22.52
2018-10-09T09:39:58.384Z,21.50
2018-10-09T09:42:26.986Z,22.65
2018-10-09T09:44:55.582Z,21.23
2018-10-09T09:47:24.167Z,21.33
2018-10-09T09:49:52.832Z,21.07
2018-10-09T09:52:22.285Z,20.00
2018-10-09T09:54:50.904Z,19.30
2018-10-09T09:57:19.536Z,19.40
2018-10-09T09:59:48.156Z,19.10
2018-10-09T10:02:16.862Z,18.82
2018-10-09T10:04:45.807Z,19.42
2018-10-09T10:07:14.571Z,18.25
2018-10-09T10:09:43.231Z,18.92
2018-10-09T10:12:12.051Z,17.60
2018-10-09T10:14:40.865Z,17.87
2018-10-09T10:17:09.519Z,15.23
2018-10-09T10:19:38.138Z,17.70
2018-10-09T10:22:06.856Z,17.70
2018-10-09T10:24:35.514Z,16.95
2018-10-09T10:27:04.728Z,16.57
2018-10-09T10:29:36.346Z,16.70
2018-10-09T10:32:05.250Z,16.37
2018-10-09T10:34:36.022Z,15.43
2018-10-09T10:37:06.382Z,14.93
2018-10-09T10:39:42.195Z,15.03
2018-10-09T10:42:19.171Z,13.32
2018-10-09T10:44:54.746Z,11.43
2018-10-09T10:47:25.882Z,12.85
2018-10-09T10:49:58.693Z,12.75
2018-10-09T10:52:28.231Z,12.13
2018-10-09T10:54:59.649Z,12.65
2018-10-09T10:57:31.411Z,11.85
2018-10-09T11:02:53.835Z,11.65
2018-10-09T11:05:25.309Z,10.98
2018-10-09T11:07:54.849Z,11.25
2018-10-09T11:10:23.969Z,11.55
2018-10-09T11:12:53.759Z,11.10
2018-10-09T11:15:27.701Z,11.25
2018-10-09T11:17:57.624Z,10.82
2018-10-09T11:20:29.713Z,11.53
2018-10-09T11:22:58.791Z,11.08
2018-10-09T11:25:27.829Z,11.53
2018-10-09T11:27:57.189Z,10.98
2018-10-09T11:30:26.675Z,11.78
2018-10-09T11:32:55.537Z,11.75
2018-10-09T11:35:24.550Z,11.08
2018-10-09T11:37:54.306Z,10.40
2018-10-09T11:40:24.310Z,10.78
2018-10-09T11:42:53.364Z,10.75
2018-10-09T11:45:31.168Z,10.60
2018-10-09T11:47:59.974Z,11.08
2018-10-09T11:50:29.156Z,10.60
2018-10-09T11:53:00.895Z,9.50
2018-10-09T11:55:30.178Z,10.38
2018-10-09T11:57:59.899Z,11.00
2018-10-09T12:00:39.254Z,10.63
2018-10-09T12:03:08.832Z,10.32
2018-10-09T12:05:38.737Z,10.25
2018-10-09T12:08:09.065Z,10.88
2018-10-09T12:10:38.111Z,10.55
2018-10-09T12:13:08.169Z,10.05
2018-10-09T12:15:38.082Z,10.75
2018-10-09T12:18:08.823Z,10.35
2018-10-09T12:20:38.792Z,10.10
2018-10-09T12:23:08.427Z,9.88
2018-10-09T12:25:37.927Z,10.15
2018-10-09T12:28:07.005Z,10.30
2018-10-09T12:30:35.883Z,10.70
2018-10-09T12:33:04.771Z,9.53
2018-10-09T12:35:33.951Z,10.10
2018-10-09T12:38:03.171Z,9.65
2018-10-09T12:40:31.957Z,10.40
2018-10-09T12:43:00.653Z,9.50
2018-10-09T12:45:29.869Z,9.60
2018-10-09T12:47:58.632Z,9.83
2018-10-09T12:50:27.696Z,9.78
2018-10-09T12:52:56.648Z,9.20
2018-10-09T12:55:26.359Z,9.48
2018-10-09T12:57:55.605Z,9.93
2018-10-09T13:00:24.536Z,9.88
2018-10-09T13:02:59.871Z,9.70
2018-10-09T13:05:28.760Z,10.35
2018-10-09T13:07:58.390Z,9.20
2018-10-09T13:10:28.023Z,10.28
2018-10-09T13:12:56.978Z,9.70
2018-10-09T13:15:26.167Z,9.53
2018-10-09T13:17:55.176Z,9.33
2018-10-09T13:20:23.938Z,10.18
2018-10-09T13:22:52.883Z,9.98
2018-10-09T13:25:21.641Z,9.85
2018-10-09T13:27:51.360Z,9.53
2018-10-09T13:30:20.236Z,10.08
2018-10-09T13:32:49.113Z,9.58
2018-10-09T13:35:17.970Z,8.90
2018-10-09T13:37:46.750Z,10.28
2018-10-09T13:40:15.501Z,10.10
2018-10-09T13:42:44.226Z,9.03
2018-10-09T13:45:12.942Z,9.33
2018-10-09T13:47:41.620Z,9.15
2018-10-09T13:50:10.412Z,8.63
2018-10-09T13:52:39.239Z,9.18
2018-10-09T13:55:08.046Z,9.23
2018-10-09T13:57:37.245Z,9.18
2018-10-09T14:00:06.025Z,8.95
2018-10-09T14:02:34.864Z,8.53
2018-10-09T14:05:03.731Z,8.53
2018-10-09T14:08:39.557Z,9.08
2018-10-09T14:11:13.547Z,8.83
2018-10-09T14:13:42.697Z,7.70
2018-10-09T14:16:17.916Z,9.20
2018-10-09T14:18:47.432Z,8.83
2018-10-09T14:21:16.082Z,8.90
2018-10-09T14:23:44.806Z,9.15
2018-10-09T14:31:31.174Z,9.75
2018-10-09T14:34:00.682Z,9.83
2018-10-09T14:36:30.703Z,9.70
2018-10-09T14:39:01.304Z,10.15
2018-10-09T14:41:39.332Z,10.13
2018-10-09T14:44:17.017Z,9.85
2018-10-09T14:46:50.947Z,9.78
2018-10-09T14:49:24.704Z,8.93
2018-10-09T14:52:04.841Z,9.13
2018-10-09T14:54:59.379Z,9.08
2018-10-09T14:58:42.149Z,9.28
2018-10-09T15:01:10.957Z,9.40
2018-10-09T15:03:44.538Z,10.13
2018-10-09T15:06:14.654Z,9.98
2018-10-09T15:08:51.809Z,9.65
2018-10-09T15:11:23.117Z,9.70
2018-10-09T15:13:54.444Z,9.78
2018-10-09T15:16:36.812Z,9.53
2018-10-09T15:19:12.210Z,10.78
2018-10-09T15:21:42.381Z,10.18
2018-10-09T15:24:11.510Z,9.90
2018-10-09T15:26:40.275Z,10.05
2018-10-09T15:29:09.138Z,9.98
2018-10-09T15:31:38.599Z,10.03
2018-10-09T15:34:07.784Z,9.78
2018-10-09T15:36:36.627Z,11.40
2018-10-09T15:39:15.319Z,9.95
2018-10-09T15:41:47.314Z,11.90
2018-10-09T15:44:16.226Z,9.88
2018-10-09T15:46:45.958Z,10.80
2018-10-09T15:49:16.404Z,10.48
2018-10-09T15:51:46.543Z,11.35
2018-10-09T15:54:15.781Z,11.28
2018-10-09T15:56:44.933Z,12.53
2018-10-09T15:59:17.407Z,11.17
2018-10-09T16:01:48.617Z,11.83
2018-10-09T16:04:18.519Z,11.93
2018-10-09T16:06:47.379Z,12.60
2018-10-09T16:09:18.458Z,12.93
2018-10-09T16:11:47.580Z,13.05
2018-10-09T16:14:16.441Z,12.65
2018-10-09T16:16:46.130Z,12.45
2018-10-09T16:19:15.542Z,13.83
2018-10-09T16:21:44.488Z,13.30
2018-10-09T16:24:13.100Z,13.73
2018-10-09T16:26:41.889Z,12.53
2018-10-09T16:29:11.729Z,13.00
2018-10-09T16:31:41.944Z,12.20
2018-10-09T16:34:10.922Z,14.07
2018-10-09T16:36:46.415Z,14.20
2018-10-09T16:39:17.196Z,14.20
2018-10-09T16:41:53.699Z,13.90
2018-10-09T16:44:22.432Z,14.63
2018-10-09T16:46:56.986Z,14.27
2018-10-09T16:49:30.540Z,15.17
2018-10-09T16:52:01.738Z,15.73
2018-10-09T16:54:31.405Z,14.90
2018-10-09T16:57:00.733Z,14.97
2018-10-09T16:59:29.470Z,15.73
2018-10-09T17:01:58.163Z,16.00
2018-10-09T17:04:27.115Z,15.33
2018-10-09T17:09:54.853Z,16.10
2018-10-09T17:13:06.461Z,16.70
2018-10-09T17:15:54.628Z,16.43
2018-10-09T17:18:30.236Z,17.03
2018-10-09T17:21:06.146Z,17.90
2018-10-09T17:23:46.112Z,19.00
2018-10-09T17:26:24.961Z,18.77
2018-10-09T17:28:53.762Z,18.83
2018-10-09T17:31:35.403Z,18.43
2018-10-09T17:34:14.710Z,18.20
2018-10-09T17:36:51.143Z,17.33
2018-10-09T17:39:37.220Z,17.27
2018-10-09T17:42:24.713Z,18.33
2018-10-09T17:45:07.720Z,18.80
2018-10-09T17:47:46.420Z,18.73
2018-10-09T17:50:29.240Z,18.60
2018-10-09T17:53:15.057Z,20.13
2018-10-09T17:55:43.999Z,20.13
2018-10-09T17:58:12.648Z,20.00
2018-10-09T18:00:41.363Z,19.87
2018-10-09T18:03:10.215Z,20.07
2018-10-09T18:05:38.943Z,19.70
2018-10-09T18:08:08.026Z,21.00
2018-10-09T18:10:36.920Z,20.57
2018-10-09T18:13:06.302Z,21.33
2018-10-09T18:15:35.127Z,21.70
2018-10-09T18:18:03.950Z,21.73
2018-10-09T18:20:32.741Z,22.07
2018-10-09T18:23:01.455Z,24.40
2018-10-09T18:25:30.172Z,21.57
2018-10-09T18:27:58.914Z,22.17
2018-10-09T18:33:33.212Z,22.17
2018-10-09T18:36:03.196Z,22.87
2018-10-09T18:38:32.098Z,23.40
2018-10-09T18:41:00.958Z,23.13
2018-10-09T18:43:31.004Z,23.50
2018-10-09T18:48:41.030Z,23.83
2018-10-09T18:51:18.961Z,23.87
2018-10-09T18:53:47.727Z,23.47
2018-10-09T18:56:17.208Z,24.20
2018-10-09T18:58:46.045Z,23.53
2018-10-09T19:01:14.754Z,23.50
2018-10-09T19:03:43.445Z,25.33
2018-10-09T19:06:12.159Z,25.33
2018-10-09T19:08:40.870Z,25.70
2018-10-09T19:11:10.174Z,27.90
2018-10-09T19:13:40.049Z,27.20
2018-10-09T19:16:10.128Z,28.17
2018-10-09T19:18:39.281Z,28.83
2018-10-09T19:21:08.040Z,28.30
2018-10-09T19:23:37.163Z,29.73
2018-10-09T19:26:06.923Z,27.17
2018-10-09T19:28:36.715Z,27.13
2018-10-09T19:31:06.485Z,28.93
2018-10-09T19:33:35.217Z,30.57
2018-10-09T19:36:04.601Z,30.70
2018-10-09T19:38:33.481Z,29.73
2018-10-09T19:41:02.853Z,31.43
2018-10-09T19:43:31.747Z,29.83
2018-10-09T19:46:00.547Z,30.40
2018-10-09T19:48:29.330Z,30.43
2018-10-09T19:51:11.305Z,30.93
2018-10-09T19:53:44.348Z,30.97
2018-10-09T19:56:13.264Z,31.37
2018-10-09T19:58:42.285Z,31.00
2018-10-09T20:01:11.885Z,30.93
2018-10-09T20:03:58.378Z,31.07
2018-10-09T20:06:28.400Z,30.63
2018-10-09T20:15:52.860Z,33.20
2018-10-09T20:22:06.617Z,31.70
2018-10-09T20:25:08.995Z,33.43
2018-10-09T20:49:03.792Z,36.20
2018-10-09T20:51:53.351Z,35.00
2018-10-09T20:54:22.327Z,35.93
2018-10-09T20:56:51.540Z,36.67
2018-10-09T21:02:18.613Z,35.63
2018-10-09T21:04:58.447Z,37.20
2018-10-09T21:07:34.663Z,36.97
2018-10-09T21:10:13.404Z,37.73
2018-10-09T21:12:49.529Z,36.70
2018-10-09T21:15:40.047Z,37.93
2018-10-09T21:18:12.579Z,36.53
2018-10-09T21:21:03.278Z,37.43
2018-10-09T21:23:49.765Z,39.50
2018-10-09T21:35:39.205Z,38.27
2018-10-09T21:38:20.796Z,39.77
2018-10-09T21:46:55.550Z,39.13
2018-10-09T21:49:24.311Z,41.00
2018-10-09T21:51:52.995Z,41.13
2018-10-09T21:54:21.823Z,41.73
2018-10-09T21:56:51.051Z,41.70
2018-10-09T21:59:19.829Z,42.80
2018-10-09T22:01:48.539Z,43.70
2018-10-09T22:04:17.272Z,42.03
2018-10-09T22:06:45.998Z,43.33
2018-10-09T22:09:14.715Z,44.03
2018-10-09T22:11:43.377Z,44.07
2018-10-09T22:14:12.176Z,45.70
2018-10-09T22:16:41.057Z,44.23
2018-10-09T22:56:17.008Z,47.97
2018-10-09T22:58:53.661Z,46.53
2018-10-09T23:20:09.765Z,47.37
2018-10-09T23:37:01.271Z,49.73
2018-10-09T23:39:43.132Z,45.83
2018-10-09T23:57:11.278Z,47.33
2018-10-09T23:59:39.955Z,47.97
